sensor_id;sensor_type;location;lat;lon;timestamp;pressure;altitude;pressure_sealevel;temperature;humidity
73692;BME280;61996;49.910;35.562;2022-08-21T00:00:53;99213.56;;;19.83;55.13
73692;BME280;61996;49.910;35.562;2022-08-21T00:03:56;99211.38;;;19.43;57.26
73692;BME280;61996;49.910;35.562;2022-08-21T00:06:59;99211.81;;;19.38;58.05
73692;BME280;61996;49.910;35.562;2022-08-21T00:10:03;99221.19;;;18.79;58.94
73692;BME280;61996;49.910;35.562;2022-08-21T00:13:08;99216.47;;;19.90;57.01
73692;BME280;61996;49.910;35.562;2022-08-21T00:16:11;99209.41;;;21.09;52.74
73692;BME280;61996;49.910;35.562;2022-08-21T00:19:14;99208.97;;;19.04;57.81
73692;BME280;61996;49.910;35.562;2022-08-21T00:22:17;99201.44;;;19.00;57.91
73692;BME280;61996;49.910;35.562;2022-08-21T00:25:20;99198.13;;;18.23;60.81
73692;BME280;61996;49.910;35.562;2022-08-21T00:28:26;99210.56;;;17.66;63.99
73692;BME280;61996;49.910;35.562;2022-08-21T00:31:29;99200.22;;;17.53;65.01
73692;BME280;61996;49.910;35.562;2022-08-21T00:34:32;99203.28;;;17.68;64.83
73692;BME280;61996;49.910;35.562;2022-08-21T00:37:35;99194.97;;;18.00;62.73
73692;BME280;61996;49.910;35.562;2022-08-21T00:40:39;99196.28;;;17.77;63.48
73692;BME280;61996;49.910;35.562;2022-08-21T00:43:45;99196.16;;;18.25;61.83
73692;BME280;61996;49.910;35.562;2022-08-21T00:46:48;99188.06;;;18.54;60.86
73692;BME280;61996;49.910;35.562;2022-08-21T00:49:51;99189.03;;;18.53;59.82
73692;BME280;61996;49.910;35.562;2022-08-21T00:52:54;99181.84;;;18.91;59.08
73692;BME280;61996;49.910;35.562;2022-08-21T00:55:57;99187.44;;;18.70;60.20
73692;BME280;61996;49.910;35.562;2022-08-21T00:59:05;99190.09;;;18.70;58.51
73692;BME280;61996;49.910;35.562;2022-08-21T01:02:08;99181.66;;;18.75;58.92
73692;BME280;61996;49.910;35.562;2022-08-21T01:05:11;99193.59;;;18.43;60.25
73692;BME280;61996;49.910;35.562;2022-08-21T01:08:15;99200.00;;;18.50;59.22
73692;BME280;61996;49.910;35.562;2022-08-21T01:11:19;99183.84;;;18.24;60.25
73692;BME280;61996;49.910;35.562;2022-08-21T01:14:24;99178.66;;;18.23;59.87
73692;BME280;61996;49.910;35.562;2022-08-21T01:17:27;99177.63;;;18.33;59.50
73692;BME280;61996;49.910;35.562;2022-08-21T01:20:30;99172.50;;;18.22;59.64
73692;BME280;61996;49.910;35.562;2022-08-21T01:23:35;99166.00;;;17.97;60.84
73692;BME280;61996;49.910;35.562;2022-08-21T01:26:39;99165.88;;;18.36;59.36
73692;BME280;61996;49.910;35.562;2022-08-21T01:29:42;99156.91;;;18.27;60.10
73692;BME280;61996;49.910;35.562;2022-08-21T01:32:47;99156.88;;;18.00;62.01
73692;BME280;61996;49.910;35.562;2022-08-21T01:35:50;99159.28;;;17.93;60.52
73692;BME280;61996;49.910;35.562;2022-08-21T01:38:54;99160.38;;;18.00;59.83
73692;BME280;61996;49.910;35.562;2022-08-21T01:41:57;99161.41;;;18.54;57.99
73692;BME280;61996;49.910;35.562;2022-08-21T01:45:00;99159.53;;;18.00;60.14
73692;BME280;61996;49.910;35.562;2022-08-21T01:48:03;99157.25;;;18.15;59.55
73692;BME280;61996;49.910;35.562;2022-08-21T01:51:06;99157.06;;;17.89;60.42
73692;BME280;61996;49.910;35.562;2022-08-21T01:54:10;99147.41;;;17.88;60.96
73692;BME280;61996;49.910;35.562;2022-08-21T01:57:13;99148.97;;;17.51;62.90
73692;BME280;61996;49.910;35.562;2022-08-21T02:00:17;99152.84;;;17.86;60.33
73692;BME280;61996;49.910;35.562;2022-08-21T02:03:20;99156.53;;;17.56;61.84
73692;BME280;61996;49.910;35.562;2022-08-21T02:06:36;99153.03;;;17.75;60.57
73692;BME280;61996;49.910;35.562;2022-08-21T02:09:41;99154.72;;;17.66;61.45
73692;BME280;61996;49.910;35.562;2022-08-21T02:12:44;99150.53;;;17.54;61.18
73692;BME280;61996;49.910;35.562;2022-08-21T02:15:47;99154.59;;;17.39;61.76
73692;BME280;61996;49.910;35.562;2022-08-21T02:18:50;99161.03;;;17.46;61.17
73692;BME280;61996;49.910;35.562;2022-08-21T02:21:53;99157.53;;;17.36;61.30
73692;BME280;61996;49.910;35.562;2022-08-21T02:24:57;99149.84;;;17.13;62.27
73692;BME280;61996;49.910;35.562;2022-08-21T02:28:02;99152.91;;;17.47;61.66
73692;BME280;61996;49.910;35.562;2022-08-21T02:31:05;99151.25;;;17.27;61.77
73692;BME280;61996;49.910;35.562;2022-08-21T02:34:08;99152.22;;;17.45;61.26
73692;BME280;61996;49.910;35.562;2022-08-21T02:37:11;99142.69;;;17.43;61.99
73692;BME280;61996;49.910;35.562;2022-08-21T02:40:16;99147.34;;;17.12;62.07
73692;BME280;61996;49.910;35.562;2022-08-21T02:43:20;99141.72;;;17.24;62.46
73692;BME280;61996;49.910;35.562;2022-08-21T02:46:23;99142.56;;;17.25;61.89
73692;BME280;61996;49.910;35.562;2022-08-21T02:49:26;99149.56;;;17.26;62.14
73692;BME280;61996;49.910;35.562;2022-08-21T02:52:29;99145.06;;;17.56;61.81
73692;BME280;61996;49.910;35.562;2022-08-21T02:55:33;99152.34;;;17.15;62.74
73692;BME280;61996;49.910;35.562;2022-08-21T02:58:38;99154.88;;;17.36;61.53
73692;BME280;61996;49.910;35.562;2022-08-21T03:01:41;99153.91;;;17.46;61.21
73692;BME280;61996;49.910;35.562;2022-08-21T03:04:45;99154.88;;;17.26;61.53
73692;BME280;61996;49.910;35.562;2022-08-21T03:07:48;99161.84;;;17.17;61.91
73692;BME280;61996;49.910;35.562;2022-08-21T03:10:52;99156.56;;;17.27;61.30
73692;BME280;61996;49.910;35.562;2022-08-21T03:13:55;99159.78;;;17.40;61.65
73692;BME280;61996;49.910;35.562;2022-08-21T03:16:58;99167.75;;;17.40;60.80
73692;BME280;61996;49.910;35.562;2022-08-21T03:20:01;99159.59;;;17.51;60.25
73692;BME280;61996;49.910;35.562;2022-08-21T03:23:04;99162.00;;;17.35;61.48
73692;BME280;61996;49.910;35.562;2022-08-21T03:26:15;99171.34;;;17.68;60.07
73692;BME280;61996;49.910;35.562;2022-08-21T03:29:20;99159.88;;;17.77;59.39
73692;BME280;61996;49.910;35.562;2022-08-21T03:32:22;99162.97;;;17.63;60.55
73692;BME280;61996;49.910;35.562;2022-08-21T03:35:25;99164.94;;;17.71;59.09
73692;BME280;61996;49.910;35.562;2022-08-21T03:38:29;99163.34;;;18.72;56.38
73692;BME280;61996;49.910;35.562;2022-08-21T03:41:33;99167.84;;;18.89;55.05
73692;BME280;61996;49.910;35.562;2022-08-21T03:44:36;99158.56;;;18.66;55.26
73692;BME280;61996;49.910;35.562;2022-08-21T03:47:49;99164.25;;;18.80;54.99
73692;BME280;61996;49.910;35.562;2022-08-21T03:50:52;99167.56;;;19.28;55.99
73692;BME280;61996;49.910;35.562;2022-08-21T03:53:55;99172.59;;;19.92;53.58
73692;BME280;61996;49.910;35.562;2022-08-21T03:56:59;99171.59;;;19.67;54.10
73692;BME280;61996;49.910;35.562;2022-08-21T04:00:03;99167.03;;;19.42;54.25
73692;BME280;61996;49.910;35.562;2022-08-21T04:03:06;99168.84;;;20.03;52.47
73692;BME280;61996;49.910;35.562;2022-08-21T04:06:09;99162.97;;;19.74;52.74
73692;BME280;61996;49.910;35.562;2022-08-21T04:09:12;99169.84;;;19.23;52.74
73692;BME280;61996;49.910;35.562;2022-08-21T04:12:16;99174.66;;;19.37;53.39
73692;BME280;61996;49.910;35.562;2022-08-21T04:15:19;99164.66;;;19.39;53.12
73692;BME280;61996;49.910;35.562;2022-08-21T04:18:22;99171.13;;;19.72;51.91
73692;BME280;61996;49.910;35.562;2022-08-21T04:21:26;99180.66;;;20.26;51.81
73692;BME280;61996;49.910;35.562;2022-08-21T04:24:29;99177.06;;;20.78;51.15
73692;BME280;61996;49.910;35.562;2022-08-21T04:27:33;99177.38;;;20.41;50.21
73692;BME280;61996;49.910;35.562;2022-08-21T04:30:36;99181.81;;;20.24;51.17
73692;BME280;61996;49.910;35.562;2022-08-21T04:33:39;99182.28;;;20.45;50.78
73692;BME280;61996;49.910;35.562;2022-08-21T04:36:42;99182.06;;;21.31;48.34
73692;BME280;61996;49.910;35.562;2022-08-21T04:39:45;99178.22;;;20.75;50.25
73692;BME280;61996;49.910;35.562;2022-08-21T04:42:55;99186.81;;;20.53;49.78
73692;BME280;61996;49.910;35.562;2022-08-21T04:46:00;99178.53;;;21.31;48.77
73692;BME280;61996;49.910;35.562;2022-08-21T04:49:03;99187.25;;;20.14;51.00
73692;BME280;61996;49.910;35.562;2022-08-21T04:52:06;99186.00;;;20.26;50.58
73692;BME280;61996;49.910;35.562;2022-08-21T04:55:09;99189.94;;;21.49;49.27
73692;BME280;61996;49.910;35.562;2022-08-21T04:58:15;99191.75;;;21.89;47.26
73692;BME280;61996;49.910;35.562;2022-08-21T05:01:21;99202.78;;;21.46;47.85
73692;BME280;61996;49.910;35.562;2022-08-21T05:04:26;99198.63;;;21.51;49.28
73692;BME280;61996;49.910;35.562;2022-08-21T05:07:32;99199.78;;;21.32;48.97
73692;BME280;61996;49.910;35.562;2022-08-21T05:10:43;99196.94;;;21.99;48.03
73692;BME280;61996;49.910;35.562;2022-08-21T05:13:48;99196.34;;;21.06;49.57
73692;BME280;61996;49.910;35.562;2022-08-21T05:16:57;99195.47;;;21.56;48.42
73692;BME280;61996;49.910;35.562;2022-08-21T05:20:00;99191.94;;;21.72;48.84
73692;BME280;61996;49.910;35.562;2022-08-21T05:23:06;99190.59;;;22.08;47.99
73692;BME280;61996;49.910;35.562;2022-08-21T05:26:10;99195.28;;;21.57;48.71
73692;BME280;61996;49.910;35.562;2022-08-21T05:29:20;99186.44;;;21.57;49.20
73692;BME280;61996;49.910;35.562;2022-08-21T05:32:23;99186.75;;;21.54;49.43
73692;BME280;61996;49.910;35.562;2022-08-21T05:35:26;99197.00;;;22.55;46.42
73692;BME280;61996;49.910;35.562;2022-08-21T05:38:30;99204.94;;;22.07;48.00
73692;BME280;61996;49.910;35.562;2022-08-21T05:41:33;99200.13;;;22.19;48.16
73692;BME280;61996;49.910;35.562;2022-08-21T05:44:37;99205.91;;;22.31;47.93
73692;BME280;61996;49.910;35.562;2022-08-21T05:47:40;99207.56;;;22.48;46.80
73692;BME280;61996;49.910;35.562;2022-08-21T05:50:43;99202.38;;;22.47;47.68
73692;BME280;61996;49.910;35.562;2022-08-21T05:53:46;99207.78;;;22.22;47.62
73692;BME280;61996;49.910;35.562;2022-08-21T05:56:49;99196.66;;;22.50;47.44
73692;BME280;61996;49.910;35.562;2022-08-21T05:59:53;99188.38;;;23.07;45.92
73692;BME280;61996;49.910;35.562;2022-08-21T06:02:56;99204.00;;;23.03;45.88
73692;BME280;61996;49.910;35.562;2022-08-21T06:05:59;99205.50;;;23.06;46.08
73692;BME280;61996;49.910;35.562;2022-08-21T06:09:03;99213.25;;;22.92;46.28
73692;BME280;61996;49.910;35.562;2022-08-21T06:12:06;99197.34;;;23.45;45.26
73692;BME280;61996;49.910;35.562;2022-08-21T06:15:11;99202.34;;;23.02;46.55
73692;BME280;61996;49.910;35.562;2022-08-21T06:21:16;99205.94;;;22.78;47.18
73692;BME280;61996;49.910;35.562;2022-08-21T06:24:19;99206.63;;;23.65;45.13
73692;BME280;61996;49.910;35.562;2022-08-21T06:27:22;99200.13;;;23.29;46.24
73692;BME280;61996;49.910;35.562;2022-08-21T06:30:28;99209.97;;;23.67;45.08
73692;BME280;61996;49.910;35.562;2022-08-21T06:33:31;99197.78;;;23.79;45.14
73692;BME280;61996;49.910;35.562;2022-08-21T06:36:34;99206.06;;;23.93;44.67
73692;BME280;61996;49.910;35.562;2022-08-21T06:39:36;99209.56;;;23.93;44.61
73692;BME280;61996;49.910;35.562;2022-08-21T06:42:45;99211.16;;;23.65;44.88
73692;BME280;61996;49.910;35.562;2022-08-21T06:45:49;99208.34;;;23.81;45.13
73692;BME280;61996;49.910;35.562;2022-08-21T06:48:52;99213.06;;;23.79;45.15
73692;BME280;61996;49.910;35.562;2022-08-21T06:51:55;99209.06;;;23.75;45.65
73692;BME280;61996;49.910;35.562;2022-08-21T06:54:58;99206.84;;;23.78;44.88
73692;BME280;61996;49.910;35.562;2022-08-21T06:58:01;99191.63;;;23.71;45.10
73692;BME280;61996;49.910;35.562;2022-08-21T07:01:05;99204.56;;;23.90;45.01
73692;BME280;61996;49.910;35.562;2022-08-21T07:04:08;99199.47;;;23.95;45.09
73692;BME280;61996;49.910;35.562;2022-08-21T07:07:11;99200.63;;;24.30;44.40
73692;BME280;61996;49.910;35.562;2022-08-21T07:10:14;99212.19;;;24.01;45.25
73692;BME280;61996;49.910;35.562;2022-08-21T07:13:23;99201.97;;;24.49;43.90
73692;BME280;61996;49.910;35.562;2022-08-21T07:16:27;99193.84;;;24.20;45.15
73692;BME280;61996;49.910;35.562;2022-08-21T07:19:30;99198.34;;;24.42;44.65
73692;BME280;61996;49.910;35.562;2022-08-21T07:22:33;99186.16;;;24.31;44.79
73692;BME280;61996;49.910;35.562;2022-08-21T07:25:38;99192.97;;;24.42;44.60
73692;BME280;61996;49.910;35.562;2022-08-21T07:28:41;99195.84;;;24.55;45.60
73692;BME280;61996;49.910;35.562;2022-08-21T07:31:45;99193.88;;;24.79;44.29
73692;BME280;61996;49.910;35.562;2022-08-21T07:34:48;99186.53;;;24.73;44.69
73692;BME280;61996;49.910;35.562;2022-08-21T07:37:51;99196.41;;;25.02;43.27
73692;BME280;61996;49.910;35.562;2022-08-21T07:40:54;99196.16;;;25.11;43.52
73692;BME280;61996;49.910;35.562;2022-08-21T07:43:58;99194.75;;;25.01;43.96
73692;BME280;61996;49.910;35.562;2022-08-21T07:47:03;99184.38;;;25.12;44.01
73692;BME280;61996;49.910;35.562;2022-08-21T07:50:06;99188.22;;;25.25;43.52
73692;BME280;61996;49.910;35.562;2022-08-21T07:53:09;99191.81;;;25.53;43.06
73692;BME280;61996;49.910;35.562;2022-08-21T07:56:12;99188.22;;;25.67;42.15
73692;BME280;61996;49.910;35.562;2022-08-21T07:59:15;99201.03;;;25.87;41.83
73692;BME280;61996;49.910;35.562;2022-08-21T08:02:23;99195.56;;;25.74;42.14
73692;BME280;61996;49.910;35.562;2022-08-21T08:05:26;99185.53;;;25.46;42.89
73692;BME280;61996;49.910;35.562;2022-08-21T08:08:30;99200.94;;;25.74;42.50
73692;BME280;61996;49.910;35.562;2022-08-21T08:11:33;99192.56;;;25.68;42.40
73692;BME280;61996;49.910;35.562;2022-08-21T08:14:36;99189.75;;;25.55;42.19
73692;BME280;61996;49.910;35.562;2022-08-21T08:17:40;99190.22;;;25.80;41.90
73692;BME280;61996;49.910;35.562;2022-08-21T08:20:43;99196.81;;;26.06;41.50
73692;BME280;61996;49.910;35.562;2022-08-21T08:23:46;99189.41;;;26.08;41.53
73692;BME280;61996;49.910;35.562;2022-08-21T08:26:49;99186.78;;;25.93;41.11
73692;BME280;61996;49.910;35.562;2022-08-21T08:29:54;99186.84;;;26.00;41.88
73692;BME280;61996;49.910;35.562;2022-08-21T08:32:58;99189.81;;;26.39;41.52
73692;BME280;61996;49.910;35.562;2022-08-21T08:36:02;99185.09;;;26.48;40.50
73692;BME280;61996;49.910;35.562;2022-08-21T08:39:08;99190.84;;;26.38;41.43
73692;BME280;61996;49.910;35.562;2022-08-21T08:42:12;99188.66;;;26.55;41.10
73692;BME280;61996;49.910;35.562;2022-08-21T08:45:36;99184.81;;;26.71;40.84
73692;BME280;61996;49.910;35.562;2022-08-21T08:48:46;99192.47;;;26.67;40.14
73692;BME280;61996;49.910;35.562;2022-08-21T08:51:54;99185.22;;;26.74;40.65
73692;BME280;61996;49.910;35.562;2022-08-21T08:55:02;99180.84;;;27.21;41.06
73692;BME280;61996;49.910;35.562;2022-08-21T08:58:06;99172.13;;;27.26;41.23
73692;BME280;61996;49.910;35.562;2022-08-21T09:01:11;99177.13;;;27.29;40.11
73692;BME280;61996;49.910;35.562;2022-08-21T09:04:19;99179.59;;;27.17;40.78
73692;BME280;61996;49.910;35.562;2022-08-21T09:07:25;99179.72;;;26.96;39.13
73692;BME280;61996;49.910;35.562;2022-08-21T09:10:34;99178.41;;;28.32;37.89
73692;BME280;61996;49.910;35.562;2022-08-21T09:13:45;99187.91;;;27.16;38.98
73692;BME280;61996;49.910;35.562;2022-08-21T09:16:52;99186.09;;;28.29;37.11
73692;BME280;61996;49.910;35.562;2022-08-21T09:20:02;99190.88;;;27.47;38.56
73692;BME280;61996;49.910;35.562;2022-08-21T09:23:12;99182.78;;;27.67;37.90
73692;BME280;61996;49.910;35.562;2022-08-21T09:26:18;99178.44;;;27.93;37.27
73692;BME280;61996;49.910;35.562;2022-08-21T09:29:21;99190.25;;;27.52;37.54
73692;BME280;61996;49.910;35.562;2022-08-21T09:32:26;99183.44;;;27.89;37.98
73692;BME280;61996;49.910;35.562;2022-08-21T09:35:48;99194.16;;;27.29;38.13
73692;BME280;61996;49.910;35.562;2022-08-21T09:38:53;99194.66;;;27.79;37.38
73692;BME280;61996;49.910;35.562;2022-08-21T09:41:56;99200.41;;;27.43;38.12
73692;BME280;61996;49.910;35.562;2022-08-21T09:45:05;99199.97;;;28.65;36.21
73692;BME280;61996;49.910;35.562;2022-08-21T09:48:12;99198.53;;;28.50;35.90
73692;BME280;61996;49.910;35.562;2022-08-21T09:51:17;99204.53;;;28.65;35.73
73692;BME280;61996;49.910;35.562;2022-08-21T09:54:21;99207.59;;;30.21;32.49
73692;BME280;61996;49.910;35.562;2022-08-21T09:57:28;99209.56;;;28.61;35.38
73692;BME280;61996;49.910;35.562;2022-08-21T10:00:56;99209.09;;;28.64;35.25
73692;BME280;61996;49.910;35.562;2022-08-21T10:04:03;99210.63;;;29.12;34.02
73692;BME280;61996;49.910;35.562;2022-08-21T10:07:08;99207.03;;;28.66;35.31
73692;BME280;61996;49.910;35.562;2022-08-21T10:10:14;99217.00;;;28.79;35.14
73692;BME280;61996;49.910;35.562;2022-08-21T10:13:18;99214.19;;;28.08;35.77
73692;BME280;61996;49.910;35.562;2022-08-21T10:16:28;99211.47;;;27.81;35.63
73692;BME280;61996;49.910;35.562;2022-08-21T10:19:35;99212.53;;;27.80;36.68
73692;BME280;61996;49.910;35.562;2022-08-21T10:22:45;99219.97;;;27.58;37.35
73692;BME280;61996;49.910;35.562;2022-08-21T10:25:50;99222.88;;;26.96;37.67
73692;BME280;61996;49.910;35.562;2022-08-21T10:29:18;99232.59;;;26.90;38.08
73692;BME280;61996;49.910;35.562;2022-08-21T10:35:49;99230.38;;;27.00;37.00
73692;BME280;61996;49.910;35.562;2022-08-21T10:38:55;99229.72;;;26.92;37.13
73692;BME280;61996;49.910;35.562;2022-08-21T10:42:25;99225.16;;;26.92;37.20
73692;BME280;61996;49.910;35.562;2022-08-21T10:45:35;99216.59;;;27.30;37.21
73692;BME280;61996;49.910;35.562;2022-08-21T10:48:41;99208.25;;;27.18;36.48
73692;BME280;61996;49.910;35.562;2022-08-21T10:51:48;99211.34;;;27.09;37.48
73692;BME280;61996;49.910;35.562;2022-08-21T10:54:56;99209.91;;;27.13;37.88
73692;BME280;61996;49.910;35.562;2022-08-21T10:58:04;99208.72;;;28.61;34.85
73692;BME280;61996;49.910;35.562;2022-08-21T11:01:08;99217.09;;;27.93;35.35
73692;BME280;61996;49.910;35.562;2022-08-21T11:04:16;99208.38;;;27.98;35.52
73692;BME280;61996;49.910;35.562;2022-08-21T11:07:22;99211.47;;;29.75;32.22
73692;BME280;61996;49.910;35.562;2022-08-21T11:10:37;99208.38;;;28.37;35.11
73692;BME280;61996;49.910;35.562;2022-08-21T11:13:59;99217.09;;;30.06;31.29
73692;BME280;61996;49.910;35.562;2022-08-21T11:17:05;99212.72;;;30.05;31.35
73692;BME280;61996;49.910;35.562;2022-08-21T11:20:13;99199.53;;;29.83;31.66
73692;BME280;61996;49.910;35.562;2022-08-21T11:23:18;99212.94;;;30.28;31.38
73692;BME280;61996;49.910;35.562;2022-08-21T11:26:28;99210.81;;;30.30;29.89
73692;BME280;61996;49.910;35.562;2022-08-21T11:29:35;99205.22;;;29.75;31.46
73692;BME280;61996;49.910;35.562;2022-08-21T11:32:48;99196.69;;;29.78;31.19
73692;BME280;61996;49.910;35.562;2022-08-21T11:35:53;99201.66;;;29.56;31.41
73692;BME280;61996;49.910;35.562;2022-08-21T11:39:06;99214.81;;;30.71;30.08
73692;BME280;61996;49.910;35.562;2022-08-21T11:42:16;99198.53;;;30.02;31.01
73692;BME280;61996;49.910;35.562;2022-08-21T11:45:24;99202.84;;;30.35;29.01
73692;BME280;61996;49.910;35.562;2022-08-21T11:48:33;99196.91;;;29.77;31.42
73692;BME280;61996;49.910;35.562;2022-08-21T11:51:39;99205.25;;;30.68;29.90
73692;BME280;61996;49.910;35.562;2022-08-21T11:54:48;99204.56;;;30.11;31.47
73692;BME280;61996;49.910;35.562;2022-08-21T11:57:54;99193.00;;;30.41;30.48
73692;BME280;61996;49.910;35.562;2022-08-21T12:01:00;99197.84;;;30.14;31.46
73692;BME280;61996;49.910;35.562;2022-08-21T12:04:08;99191.00;;;30.29;29.76
73692;BME280;61996;49.910;35.562;2022-08-21T12:07:13;99204.41;;;30.68;29.47
73692;BME280;61996;49.910;35.562;2022-08-21T12:10:30;99193.25;;;30.14;31.96
73692;BME280;61996;49.910;35.562;2022-08-21T12:13:40;99194.69;;;30.17;31.04
73692;BME280;61996;49.910;35.562;2022-08-21T12:17:03;99183.97;;;29.97;31.99
73692;BME280;61996;49.910;35.562;2022-08-21T12:20:16;99187.38;;;30.17;30.89
73692;BME280;61996;49.910;35.562;2022-08-21T12:23:27;99174.16;;;29.53;32.55
73692;BME280;61996;49.910;35.562;2022-08-21T12:26:34;99172.28;;;29.78;31.64
73692;BME280;61996;49.910;35.562;2022-08-21T12:29:43;99173.69;;;30.12;30.57
73692;BME280;61996;49.910;35.562;2022-08-21T12:32:54;99181.53;;;30.20;31.88
73692;BME280;61996;49.910;35.562;2022-08-21T12:36:07;99183.56;;;30.00;31.81
73692;BME280;61996;49.910;35.562;2022-08-21T12:39:14;99181.19;;;30.10;31.41
73692;BME280;61996;49.910;35.562;2022-08-21T12:42:20;99168.94;;;30.26;32.23
73692;BME280;61996;49.910;35.562;2022-08-21T12:45:28;99177.00;;;30.33;31.34
73692;BME280;61996;49.910;35.562;2022-08-21T12:48:35;99170.38;;;30.83;31.69
73692;BME280;61996;49.910;35.562;2022-08-21T12:51:46;99175.03;;;30.21;32.67
73692;BME280;61996;49.910;35.562;2022-08-21T12:54:50;99167.34;;;31.22;30.72
73692;BME280;61996;49.910;35.562;2022-08-21T12:57:56;99170.50;;;30.52;30.85
73692;BME280;61996;49.910;35.562;2022-08-21T13:01:01;99169.31;;;30.84;31.27
73692;BME280;61996;49.910;35.562;2022-08-21T13:04:06;99165.63;;;29.99;33.02
73692;BME280;61996;49.910;35.562;2022-08-21T13:07:11;99165.72;;;30.72;31.70
73692;BME280;61996;49.910;35.562;2022-08-21T13:10:30;99177.28;;;30.24;31.95
73692;BME280;61996;49.910;35.562;2022-08-21T13:13:33;99181.31;;;30.40;31.36
73692;BME280;61996;49.910;35.562;2022-08-21T13:16:53;99176.19;;;30.50;31.71
73692;BME280;61996;49.910;35.562;2022-08-21T13:19:59;99174.88;;;30.16;31.21
73692;BME280;61996;49.910;35.562;2022-08-21T13:23:06;99166.22;;;29.76;33.10
73692;BME280;61996;49.910;35.562;2022-08-21T13:26:13;99162.00;;;30.12;31.15
73692;BME280;61996;49.910;35.562;2022-08-21T13:29:20;99167.53;;;29.73;32.22
73692;BME280;61996;49.910;35.562;2022-08-21T13:32:25;99174.06;;;29.91;30.83
73692;BME280;61996;49.910;35.562;2022-08-21T13:35:31;99175.97;;;29.59;33.73
73692;BME280;61996;49.910;35.562;2022-08-21T13:38:37;99185.03;;;29.39;32.01
73692;BME280;61996;49.910;35.562;2022-08-21T13:41:43;99190.50;;;29.33;30.23
73692;BME280;61996;49.910;35.562;2022-08-21T13:44:47;99185.72;;;28.83;30.69
73692;BME280;61996;49.910;35.562;2022-08-21T13:47:51;99199.00;;;29.05;31.57
73692;BME280;61996;49.910;35.562;2022-08-21T13:50:55;99189.53;;;28.69;31.72
73692;BME280;61996;49.910;35.562;2022-08-21T13:53:59;99198.75;;;29.06;28.80
73692;BME280;61996;49.910;35.562;2022-08-21T13:57:03;99193.16;;;29.39;28.87
73692;BME280;61996;49.910;35.562;2022-08-21T14:00:10;99201.25;;;29.53;29.88
73692;BME280;61996;49.910;35.562;2022-08-21T14:03:15;99192.78;;;28.98;30.23
73692;BME280;61996;49.910;35.562;2022-08-21T14:06:26;99191.75;;;28.92;29.84
73692;BME280;61996;49.910;35.562;2022-08-21T14:09:31;99188.16;;;29.05;29.51
73692;BME280;61996;49.910;35.562;2022-08-21T14:12:36;99188.88;;;29.25;29.03
73692;BME280;61996;49.910;35.562;2022-08-21T14:15:40;99186.72;;;29.34;28.51
73692;BME280;61996;49.910;35.562;2022-08-21T14:18:46;99186.66;;;29.15;29.03
73692;BME280;61996;49.910;35.562;2022-08-21T14:21:49;99183.19;;;29.02;29.29
73692;BME280;61996;49.910;35.562;2022-08-21T14:24:58;99179.81;;;29.06;29.18
73692;BME280;61996;49.910;35.562;2022-08-21T14:28:03;99177.84;;;28.82;29.18
73692;BME280;61996;49.910;35.562;2022-08-21T14:31:12;99179.47;;;28.38;29.38
73692;BME280;61996;49.910;35.562;2022-08-21T14:34:21;99175.72;;;28.39;31.15
73692;BME280;61996;49.910;35.562;2022-08-21T14:37:24;99178.53;;;28.57;27.47
73692;BME280;61996;49.910;35.562;2022-08-21T14:40:28;99184.16;;;28.56;27.21
73692;BME280;61996;49.910;35.562;2022-08-21T14:43:31;99180.91;;;28.40;31.74
73692;BME280;61996;49.910;35.562;2022-08-21T14:46:38;99189.63;;;28.29;31.56
73692;BME280;61996;49.910;35.562;2022-08-21T14:49:57;99183.00;;;28.19;30.16
73692;BME280;61996;49.910;35.562;2022-08-21T14:53:00;99185.94;;;28.10;29.44
73692;BME280;61996;49.910;35.562;2022-08-21T14:56:12;99181.75;;;28.14;29.80
73692;BME280;61996;49.910;35.562;2022-08-21T14:59:15;99174.69;;;28.00;31.34
73692;BME280;61996;49.910;35.562;2022-08-21T15:02:18;99176.78;;;27.98;30.59
73692;BME280;61996;49.910;35.562;2022-08-21T15:05:24;99183.84;;;27.93;28.66
73692;BME280;61996;49.910;35.562;2022-08-21T15:08:34;99186.56;;;27.79;30.88
73692;BME280;61996;49.910;35.562;2022-08-21T15:11:37;99180.28;;;27.52;29.96
73692;BME280;61996;49.910;35.562;2022-08-21T15:14:43;99183.84;;;27.73;29.73
73692;BME280;61996;49.910;35.562;2022-08-21T15:17:46;99183.63;;;27.74;31.73
73692;BME280;61996;49.910;35.562;2022-08-21T15:20:50;99185.03;;;27.44;31.11
73692;BME280;61996;49.910;35.562;2022-08-21T15:23:53;99179.22;;;27.47;30.07
73692;BME280;61996;49.910;35.562;2022-08-21T15:26:56;99181.09;;;27.26;30.71
73692;BME280;61996;49.910;35.562;2022-08-21T15:30:01;99176.81;;;27.04;31.38
73692;BME280;61996;49.910;35.562;2022-08-21T15:33:07;99182.78;;;26.80;29.84
73692;BME280;61996;49.910;35.562;2022-08-21T15:36:13;99183.84;;;26.85;29.61
73692;BME280;61996;49.910;35.562;2022-08-21T15:39:16;99170.38;;;26.92;29.73
73692;BME280;61996;49.910;35.562;2022-08-21T15:42:25;99174.63;;;26.66;30.06
73692;BME280;61996;49.910;35.562;2022-08-21T15:45:29;99183.50;;;26.60;32.82
73692;BME280;61996;49.910;35.562;2022-08-21T15:48:31;99177.47;;;26.52;32.66
73692;BME280;61996;49.910;35.562;2022-08-21T15:51:35;99178.00;;;26.12;31.82
73692;BME280;61996;49.910;35.562;2022-08-21T15:54:44;99169.16;;;25.90;31.15
73692;BME280;61996;49.910;35.562;2022-08-21T15:57:47;99171.41;;;25.87;31.19
73692;BME280;61996;49.910;35.562;2022-08-21T16:00:59;99166.16;;;25.36;33.24
73692;BME280;61996;49.910;35.562;2022-08-21T16:04:02;99161.00;;;24.98;33.70
73692;BME280;61996;49.910;35.562;2022-08-21T16:07:07;99156.84;;;24.81;34.65
73692;BME280;61996;49.910;35.562;2022-08-21T16:10:11;99162.56;;;24.56;34.66
73692;BME280;61996;49.910;35.562;2022-08-21T16:13:15;99160.13;;;24.32;34.52
73692;BME280;61996;49.910;35.562;2022-08-21T16:16:20;99161.28;;;24.38;36.26